createdAt,value
2022-10-05T00:02:25.570Z,71.01
2022-10-05T00:05:29.669Z,70.80
2022-10-05T00:08:26.286Z,71.78
2022-10-05T00:11:21.157Z,71.37
2022-10-05T00:14:23.170Z,71.22
2022-10-05T00:17:21.831Z,71.47
2022-10-05T00:20:23.828Z,70.93
2022-10-05T00:23:23.032Z,70.34
2022-10-05T00:26:24.692Z,69.50
2022-10-05T00:29:24.181Z,69.61
2022-10-05T00:32:14.769Z,69.57
2022-10-05T00:35:04.617Z,70.00
2022-10-05T00:37:56.647Z,69.82
2022-10-05T00:40:51.632Z,69.27
2022-10-05T00:44:04.714Z,69.26
2022-10-05T00:47:22.434Z,69.02
2022-10-05T00:50:39.089Z,69.04
2022-10-05T00:53:49.520Z,68.39
2022-10-05T00:57:08.173Z,68.32
2022-10-05T01:00:18.459Z,68.71
2022-10-05T01:03:42.414Z,69.01
2022-10-05T01:06:39.835Z,68.16
2022-10-05T01:09:35.989Z,68.25
2022-10-05T01:13:16.788Z,68.71
2022-10-05T01:16:17.139Z,68.47
2022-10-05T01:19:19.821Z,67.56
2022-10-05T01:22:49.194Z,67.02
2022-10-05T01:26:14.127Z,67.35
2022-10-05T01:29:41.110Z,67.68
2022-10-05T01:32:44.647Z,66.70
2022-10-05T01:35:55.465Z,67.12
2022-10-05T01:39:06.734Z,65.93
2022-10-05T01:43:03.888Z,65.61
2022-10-05T01:46:20.714Z,65.75
2022-10-05T01:49:35.400Z,65.89
2022-10-05T01:52:51.383Z,64.96
2022-10-05T01:56:06.012Z,65.73
2022-10-05T01:59:20.614Z,65.92
2022-10-05T02:02:14.537Z,66.29
2022-10-05T02:05:17.525Z,66.45
2022-10-05T02:08:40.772Z,66.49
2022-10-05T02:11:30.512Z,65.87
2022-10-05T02:14:24.946Z,66.50
2022-10-05T02:17:30.612Z,66.04
2022-10-05T02:20:27.313Z,66.29
2022-10-05T02:23:22.852Z,66.32
2022-10-05T02:26:14.027Z,66.37
2022-10-05T02:29:11.075Z,66.17
2022-10-05T02:32:15.873Z,65.98
2022-10-05T02:35:16.286Z,65.66
2022-10-05T02:38:20.335Z,65.56
2022-10-05T02:41:33.321Z,65.23
2022-10-05T02:44:32.948Z,65.07
2022-10-05T02:47:31.478Z,64.64
2022-10-05T02:50:47.194Z,64.25
2022-10-05T02:53:40.338Z,63.48
2022-10-05T02:56:45.930Z,63.01
2022-10-05T02:59:49.666Z,62.39
2022-10-05T03:02:59.306Z,62.45
2022-10-05T03:06:07.487Z,62.85
2022-10-05T03:09:05.235Z,62.71
2022-10-05T03:12:16.585Z,62.98
2022-10-05T03:15:47.497Z,62.63
2022-10-05T03:19:07.926Z,62.90
2022-10-05T03:22:06.806Z,62.59
2022-10-05T03:25:40.313Z,62.47
2022-10-05T03:29:00.055Z,62.49
2022-10-05T03:32:07.812Z,62.47
2022-10-05T03:35:16.578Z,62.35
2022-10-05T03:38:15.985Z,63.70
2022-10-05T03:41:14.821Z,63.53
2022-10-05T03:44:34.079Z,63.65
2022-10-05T03:47:38.156Z,63.77
2022-10-05T03:51:04.344Z,64.17
2022-10-05T03:54:04.693Z,63.79
2022-10-05T03:57:04.179Z,63.51
2022-10-05T04:00:07.987Z,62.40
2022-10-05T04:03:33.565Z,61.96
2022-10-05T04:06:29.596Z,61.49
2022-10-05T04:09:28.580Z,61.02
2022-10-05T04:12:26.156Z,60.30
2022-10-05T04:15:53.807Z,60.59
2022-10-05T04:19:07.554Z,60.33
2022-10-05T04:22:10.695Z,60.15
2022-10-05T04:25:22.981Z,60.36
2022-10-05T04:28:44.399Z,60.13
2022-10-05T04:32:12.483Z,60.64
2022-10-05T04:35:19.881Z,60.68
2022-10-05T04:38:38.182Z,60.96
2022-10-05T04:42:01.894Z,61.07
2022-10-05T04:44:59.454Z,60.53
2022-10-05T04:47:59.383Z,61.21
2022-10-05T04:51:07.875Z,61.49
2022-10-05T04:54:17.561Z,62.50
2022-10-05T04:57:29.115Z,64.25
2022-10-05T05:00:26.923Z,64.85
2022-10-05T05:03:47.458Z,65.48
2022-10-05T05:06:40.084Z,66.19
2022-10-05T05:09:50.566Z,66.46
2022-10-05T05:13:01.283Z,66.02
2022-10-05T05:16:14.736Z,67.59
2022-10-05T05:19:46.167Z,68.05
2022-10-05T05:22:48.258Z,68.56
2022-10-05T05:26:06.470Z,68.17
2022-10-05T05:29:33.238Z,67.91
2022-10-05T05:32:48.303Z,68.20
2022-10-05T05:35:57.474Z,67.54
2022-10-05T05:39:25.204Z,67.59
2022-10-05T05:42:55.259Z,67.62
2022-10-05T05:46:07.792Z,68.01
2022-10-05T05:48:59.773Z,67.42
2022-10-05T05:52:11.534Z,67.12
2022-10-05T05:55:08.306Z,66.19
2022-10-05T05:58:24.069Z,65.98
2022-10-05T06:01:34.237Z,65.78
2022-10-05T06:04:42.946Z,66.10
2022-10-05T06:07:34.211Z,66.23
2022-10-05T06:10:28.587Z,65.79
2022-10-05T06:13:42.774Z,65.85
2022-10-05T06:16:52.452Z,65.09
2022-10-05T06:19:43.621Z,64.52
2022-10-05T06:22:46.064Z,64.57
2022-10-05T06:25:39.848Z,65.01
2022-10-05T06:28:31.832Z,66.01
2022-10-05T06:32:03.798Z,69.37
2022-10-05T06:35:23.403Z,70.37
2022-10-05T06:38:36.852Z,70.30
2022-10-05T06:42:02.829Z,70.67
2022-10-05T06:45:55.094Z,71.23
2022-10-05T06:49:18.649Z,73.35
2022-10-05T06:52:42.537Z,74.56
2022-10-05T06:56:22.872Z,73.55
2022-10-05T07:00:03.185Z,73.59
2022-10-05T07:03:00.056Z,74.46
2022-10-05T07:05:53.800Z,74.75
2022-10-05T07:09:10.616Z,74.32
2022-10-05T07:12:24.496Z,74.06
2022-10-05T07:15:23.747Z,73.78
2022-10-05T07:18:50.552Z,73.44
2022-10-05T07:22:24.613Z,74.70
2022-10-05T07:25:30.660Z,74.89
2022-10-05T07:28:26.969Z,75.86
2022-10-05T07:31:34.992Z,74.98
2022-10-05T07:34:27.182Z,75.70
2022-10-05T07:37:46.640Z,75.57
2022-10-05T07:40:58.429Z,74.16
2022-10-05T07:44:03.043Z,74.34
2022-10-05T07:47:12.992Z,73.40
2022-10-05T07:50:30.533Z,72.69
2022-10-05T07:54:10.335Z,71.36
2022-10-05T07:57:19.705Z,71.47
2022-10-05T08:00:22.129Z,71.34
2022-10-05T08:03:25.765Z,70.43
2022-10-05T08:06:41.997Z,69.41
2022-10-05T08:09:55.568Z,69.02
2022-10-05T08:13:10.074Z,70.07
2022-10-05T08:16:06.428Z,68.95
2022-10-05T08:19:02.043Z,67.41
2022-10-05T08:22:23.001Z,65.50
2022-10-05T08:25:31.166Z,64.88
2022-10-05T08:28:35.681Z,64.07
2022-10-05T08:31:42.987Z,63.05
2022-10-05T08:34:48.151Z,62.80
2022-10-05T08:37:42.128Z,62.37
2022-10-05T08:40:37.993Z,62.37
2022-10-05T08:43:56.061Z,61.72
2022-10-05T08:47:21.136Z,61.23
2022-10-05T08:50:41.920Z,60.52
2022-10-05T08:53:40.466Z,60.79
2022-10-05T08:56:57.087Z,59.74
2022-10-05T09:00:08.197Z,59.08
2022-10-05T09:03:18.142Z,59.94
2022-10-05T09:06:24.196Z,59.55
2022-10-05T09:09:50.615Z,59.81
2022-10-05T09:12:50.840Z,60.14
2022-10-05T09:16:18.080Z,60.68
2022-10-05T09:19:43.069Z,60.73
2022-10-05T09:22:59.167Z,61.14
2022-10-05T09:25:59.888Z,60.72
2022-10-05T09:29:08.193Z,60.86
2022-10-05T09:32:14.221Z,60.86
2022-10-05T09:35:10.456Z,61.31
2022-10-05T09:38:16.026Z,60.72
2022-10-05T09:41:32.750Z,60.29
2022-10-05T09:45:00.240Z,61.07
2022-10-05T09:48:21.234Z,60.60
2022-10-05T09:51:30.430Z,60.69
2022-10-05T09:54:33.063Z,60.82
2022-10-05T09:57:36.934Z,60.58
2022-10-05T10:00:50.095Z,60.68
2022-10-05T10:03:59.550Z,60.34
2022-10-05T10:06:52.689Z,60.71
2022-10-05T10:10:08.126Z,61.63
2022-10-05T10:13:31.946Z,61.61
2022-10-05T10:16:32.076Z,62.63
2022-10-05T10:19:33.334Z,61.25
2022-10-05T10:23:04.584Z,60.94
2022-10-05T10:26:36.628Z,60.97
2022-10-05T10:29:44.861Z,60.88
2022-10-05T10:32:35.290Z,60.49
2022-10-05T10:36:06.038Z,60.71
2022-10-05T10:39:14.787Z,60.78
2022-10-05T10:42:11.832Z,60.97
2022-10-05T10:45:26.694Z,60.95
2022-10-05T10:48:21.435Z,61.28
2022-10-05T10:51:33.096Z,62.44
2022-10-05T10:54:33.452Z,62.14
2022-10-05T10:57:48.190Z,61.64
2022-10-05T11:01:24.182Z,60.73
2022-10-05T11:04:55.093Z,60.78
2022-10-05T11:08:16.781Z,60.45
2022-10-05T11:11:11.684Z,60.31
2022-10-05T11:14:13.226Z,60.29
2022-10-05T11:17:30.465Z,59.88
2022-10-05T11:20:44.186Z,61.52
2022-10-05T11:24:10.025Z,60.57
2022-10-05T11:27:17.801Z,61.01
2022-10-05T11:30:36.295Z,61.06
2022-10-05T11:34:01.908Z,61.01
2022-10-05T11:37:21.986Z,60.53
2022-10-05T11:40:35.143Z,60.45
2022-10-05T11:43:34.082Z,60.54
2022-10-05T11:46:48.860Z,60.77
2022-10-05T11:50:07.546Z,61.98
2022-10-05T11:53:38.697Z,63.25
2022-10-05T11:56:55.731Z,63.80
2022-10-05T12:00:11.818Z,63.95
2022-10-05T12:03:38.203Z,65.30
2022-10-05T12:07:13.632Z,64.49
2022-10-05T12:10:27.400Z,64.94
2022-10-05T12:13:29.007Z,65.12
2022-10-05T12:16:39.722Z,64.62
2022-10-05T12:19:45.926Z,63.10
2022-10-05T12:22:51.987Z,63.38
2022-10-05T12:25:54.848Z,63.64
2022-10-05T12:28:51.187Z,62.50
2022-10-05T12:31:53.279Z,62.46
2022-10-05T12:35:01.425Z,62.47
2022-10-05T12:38:20.582Z,61.62
2022-10-05T12:41:30.338Z,62.04
2022-10-05T12:44:36.992Z,62.38
2022-10-05T12:47:41.407Z,61.16
2022-10-05T12:50:49.294Z,61.90
2022-10-05T12:54:19.691Z,61.44
2022-10-05T12:57:19.655Z,62.15
2022-10-05T13:00:23.115Z,62.05
2022-10-05T13:03:41.083Z,62.64
2022-10-05T13:06:44.069Z,62.27
2022-10-05T13:10:17.480Z,62.61
2022-10-05T13:13:24.604Z,62.34
2022-10-05T13:16:22.879Z,62.00
2022-10-05T13:19:26.148Z,62.16
2022-10-05T13:22:42.218Z,63.41
2022-10-05T13:25:45.496Z,63.48
2022-10-05T13:28:46.035Z,64.39
2022-10-05T13:31:46.860Z,62.99
2022-10-05T13:34:55.123Z,62.32
2022-10-05T13:38:29.762Z,62.75
2022-10-05T13:41:36.959Z,63.90
2022-10-05T13:44:49.097Z,64.23
2022-10-05T13:47:54.768Z,63.63
2022-10-05T13:51:05.334Z,63.36
2022-10-05T13:54:08.805Z,63.61
2022-10-05T13:57:22.305Z,63.60
2022-10-05T14:00:27.380Z,63.20
2022-10-05T14:03:34.322Z,64.26
2022-10-05T14:06:31.897Z,64.71
2022-10-05T14:09:27.986Z,64.44
2022-10-05T14:12:25.113Z,64.00
2022-10-05T14:15:24.572Z,63.93
2022-10-05T14:18:32.549Z,63.86
2022-10-05T14:21:28.991Z,64.15
2022-10-05T14:24:42.752Z,64.19
2022-10-05T14:27:37.974Z,65.04
2022-10-05T14:30:31.929Z,64.84
2022-10-05T14:33:32.295Z,64.82
2022-10-05T14:36:44.980Z,64.64
2022-10-05T14:39:36.526Z,65.52
2022-10-05T14:42:31.030Z,65.16
2022-10-05T14:45:33.110Z,65.99
2022-10-05T14:48:24.035Z,65.03
2022-10-05T14:51:33.001Z,65.55
2022-10-05T14:54:40.387Z,66.07
2022-10-05T14:57:40.211Z,66.71
2022-10-05T15:00:34.943Z,66.16
2022-10-05T15:03:37.450Z,66.14
2022-10-05T15:06:42.117Z,66.09
2022-10-05T15:09:55.766Z,66.35
2022-10-05T15:12:49.461Z,66.11
2022-10-05T15:16:02.735Z,66.51
2022-10-05T15:19:28.684Z,66.66
2022-10-05T15:22:26.258Z,66.64
2022-10-05T15:25:18.758Z,66.63
2022-10-05T15:28:17.507Z,66.68
2022-10-05T15:31:25.552Z,66.80
2022-10-05T15:34:28.983Z,67.28
2022-10-05T15:37:25.276Z,66.94
2022-10-05T15:40:29.457Z,67.05
2022-10-05T15:43:24.166Z,67.13
2022-10-05T15:46:23.009Z,66.75
2022-10-05T15:49:30.031Z,66.71
2022-10-05T15:52:39.982Z,66.78
2022-10-05T15:55:58.533Z,67.08
2022-10-05T15:59:17.523Z,66.66
2022-10-05T16:02:20.885Z,66.22
2022-10-05T16:05:21.079Z,66.09
2022-10-05T16:08:35.884Z,66.61
2022-10-05T16:11:53.098Z,66.95
2022-10-05T16:14:59.232Z,67.17
2022-10-05T16:18:03.087Z,67.16
2022-10-05T16:20:55.720Z,66.75
2022-10-05T16:24:17.924Z,67.19
2022-10-05T16:27:34.199Z,67.00
2022-10-05T16:30:25.695Z,67.48
2022-10-05T16:34:04.375Z,67.98
2022-10-05T16:37:19.290Z,68.04
2022-10-05T16:40:48.088Z,68.14
2022-10-05T16:44:18.719Z,67.65
2022-10-05T16:47:45.274Z,68.06
2022-10-05T16:51:14.244Z,68.16
2022-10-05T16:54:19.174Z,68.47
2022-10-05T16:57:18.186Z,68.34
2022-10-05T17:00:27.440Z,68.95
2022-10-05T17:03:41.127Z,69.16
2022-10-05T17:06:48.085Z,69.26
2022-10-05T17:09:47.844Z,69.75
2022-10-05T17:12:58.340Z,69.74
2022-10-05T17:16:02.278Z,70.00
2022-10-05T17:19:10.919Z,69.84
2022-10-05T17:22:02.978Z,69.69
2022-10-05T17:25:14.010Z,69.78
2022-10-05T17:28:26.725Z,69.77
2022-10-05T17:31:21.865Z,69.74
2022-10-05T17:34:18.883Z,69.88
2022-10-05T17:37:33.029Z,69.92
2022-10-05T17:40:40.906Z,70.30
2022-10-05T17:43:34.552Z,70.69
2022-10-05T17:46:46.584Z,70.16
2022-10-05T17:50:18.784Z,70.41
2022-10-05T17:54:04.570Z,70.42
2022-10-05T17:56:58.071Z,70.67
2022-10-05T17:59:57.787Z,70.90
2022-10-05T18:02:48.811Z,70.32
2022-10-05T18:05:39.236Z,70.54
2022-10-05T18:08:38.720Z,70.84
2022-10-05T18:11:37.640Z,70.96
2022-10-05T18:14:27.761Z,70.99
2022-10-05T18:17:39.182Z,71.08
2022-10-05T18:20:32.384Z,70.86
2022-10-05T18:23:26.384Z,71.34
2022-10-05T18:26:33.666Z,71.33
2022-10-05T18:30:05.890Z,71.12
2022-10-05T18:33:13.212Z,71.78
2022-10-05T18:36:14.511Z,71.43
2022-10-05T18:39:07.699Z,71.77
2022-10-05T18:42:26.388Z,71.64
2022-10-05T18:45:39.076Z,71.64
2022-10-05T18:48:44.223Z,72.00
2022-10-05T18:51:52.157Z,71.65
2022-10-05T18:55:07.777Z,71.70
2022-10-05T18:58:24.445Z,71.49
2022-10-05T19:01:33.403Z,71.96
2022-10-05T19:04:39.327Z,71.91
2022-10-05T19:07:50.340Z,71.96
2022-10-05T19:10:47.563Z,71.59
2022-10-05T19:13:56.925Z,71.73
2022-10-05T19:16:56.366Z,72.02
2022-10-05T19:20:18.415Z,72.27
2022-10-05T19:23:37.550Z,72.34
2022-10-05T19:26:44.843Z,72.43
2022-10-05T19:29:48.795Z,72.64
2022-10-05T19:32:43.449Z,72.25
2022-10-05T19:36:10.856Z,72.15
2022-10-05T19:39:23.282Z,72.36
2022-10-05T19:42:21.456Z,72.32
2022-10-05T19:45:24.976Z,72.44
2022-10-05T19:48:21.588Z,72.22
2022-10-05T19:51:30.303Z,72.47
2022-10-05T19:54:30.041Z,71.94
2022-10-05T19:57:20.034Z,72.46
2022-10-05T20:00:28.214Z,72.52
2022-10-05T20:03:30.428Z,72.02
2022-10-05T20:06:22.706Z,72.40
2022-10-05T20:09:23.223Z,72.47
2022-10-05T20:12:13.147Z,72.17
2022-10-05T20:15:28.504Z,72.69
2022-10-05T20:19:12.541Z,72.19
2022-10-05T20:22:47.108Z,72.55
2022-10-05T20:25:41.170Z,72.91
2022-10-05T20:28:34.568Z,72.95
2022-10-05T20:31:24.023Z,72.66
2022-10-05T20:34:14.417Z,72.87
2022-10-05T20:37:04.956Z,73.10
2022-10-05T20:39:54.780Z,72.58
2022-10-05T20:42:47.846Z,72.80
2022-10-05T20:45:44.529Z,72.83
2022-10-05T20:48:35.507Z,72.91
2022-10-05T20:51:29.826Z,73.06
2022-10-05T20:54:19.934Z,73.14
2022-10-05T20:57:17.419Z,73.65
2022-10-05T21:00:08.026Z,73.57
2022-10-05T21:02:58.273Z,73.25
2022-10-05T21:05:48.435Z,73.58
2022-10-05T21:08:39.238Z,73.75
2022-10-05T21:11:29.558Z,73.65
2022-10-05T21:14:20.633Z,73.36
2022-10-05T21:17:10.584Z,73.39
2022-10-05T21:20:00.848Z,73.87
2022-10-05T21:22:50.823Z,74.05
2022-10-05T21:25:40.737Z,73.41
2022-10-05T21:28:33.559Z,74.17
2022-10-05T21:31:23.010Z,74.05
2022-10-05T21:34:13.261Z,73.89
2022-10-05T21:37:03.605Z,74.22
2022-10-05T21:39:53.444Z,74.27
2022-10-05T21:42:43.406Z,73.97
2022-10-05T21:45:33.467Z,74.12
2022-10-05T21:48:23.456Z,74.19
2022-10-05T21:51:17.421Z,73.88
2022-10-05T21:54:26.999Z,74.32
2022-10-05T21:57:16.475Z,73.82
2022-10-05T22:00:09.285Z,74.09
2022-10-05T22:03:00.099Z,74.32
2022-10-05T22:05:49.926Z,74.21
2022-10-05T22:08:40.166Z,74.04
2022-10-05T22:11:30.351Z,74.01
2022-10-05T22:14:19.803Z,74.26
2022-10-05T22:17:28.889Z,73.89
2022-10-05T22:20:21.255Z,74.03
2022-10-05T22:23:11.148Z,73.96
2022-10-05T22:26:01.954Z,74.40
2022-10-05T22:28:56.045Z,74.60
2022-10-05T22:31:49.546Z,74.04
2022-10-05T22:34:39.061Z,74.29
2022-10-05T22:37:28.517Z,74.72
2022-10-05T22:40:17.955Z,74.44
2022-10-05T22:43:08.554Z,74.09
2022-10-05T22:45:58.466Z,73.78
2022-10-05T22:48:48.138Z,73.79
2022-10-05T22:51:40.841Z,73.95
2022-10-05T22:54:32.510Z,73.36
2022-10-05T22:57:24.464Z,73.39
2022-10-05T23:00:18.286Z,73.02
2022-10-05T23:03:08.793Z,73.37
2022-10-05T23:06:06.165Z,73.43
2022-10-05T23:08:56.621Z,72.77
2022-10-05T23:11:48.887Z,72.89
2022-10-05T23:14:38.179Z,72.54
2022-10-05T23:17:27.979Z,72.74
2022-10-05T23:20:17.667Z,73.19
2022-10-05T23:23:07.179Z,72.62
2022-10-05T23:26:03.914Z,72.10
2022-10-05T23:28:54.034Z,71.74
2022-10-05T23:31:45.357Z,72.66
2022-10-05T23:34:37.331Z,72.06
2022-10-05T23:37:29.300Z,72.78
2022-10-05T23:40:19.395Z,71.88
2022-10-05T23:43:08.876Z,71.64
2022-10-05T23:45:59.341Z,71.07
2022-10-05T23:48:51.187Z,70.87
2022-10-05T23:51:46.859Z,70.67
2022-10-05T23:54:37.657Z,70.87
2022-10-05T23:57:27.663Z,70.64
